Lake Cumberland Regional Airport
KSME : rendu visible

Aérodrome :











RETROUVEZ-NOUS SUR...

 
LOGIN :

S'inscrire | Disclaimer

   EN    FR    IT 

 









Légende :    VFR   VFR Marginal   IFR   IFR Intensif   IFR Très Intensif
Visi : 
Plafond : 
>= 8 km
>= 3000ft
5 à 8 km
1000 à 3000 ft
1500m à 5 km
500 à 1000 ft
800 à 1500m
200 à 500 ft
< 800m
< 200 ft
Symboles :   Orages  Brouillard  Fortes neiges  Fortes précipitations  Vent > 20 kt






- Altitude de l'aérodrome : 927 ft


KSME - Lake Cumberland Regional

DERNIER METAR :
  • 271015Z AUTO 00000KT 1/2SM FG OVC002 00/00 A3015 RMK AO2

METARs EXPIRÉS :
  • 270955Z AUTO 00000KT 3/4SM BR OVC002 00/00 A3015 RMK AO2
  • 270935Z AUTO 00000KT 1SM BR OVC002 00/00 A3014 RMK AO2
  • 270915Z AUTO 00000KT 7SM SCT002 00/00 A3014 RMK AO2
  • 270855Z AUTO 00000KT 1 3/4SM BR OVC002 00/00 A3014 RMK AO2
  • 270835Z AUTO 00000KT 5SM BR CLR 00/00 A3014 RMK AO2
  • 270815Z AUTO 00000KT 7SM CLR 01/00 A3015 RMK AO2
  • 270755Z AUTO 00000KT 7SM CLR 02/01 A3014 RMK AO2
  • 270735Z AUTO 00000KT 2 1/2SM BR CLR 02/01 A3014 RMK AO2 VIS 3/4V5
  • 270655Z AUTO 00000KT 7SM CLR 02/01 A3013 RMK AO2

TAF KSME
Valide du 27 à 10h jusqu'au 28 à 06h UTC


271006Z 2710/2806 00000KT 1SM BR BKN002 BKN250
FM271400 VRB04KT P6SM SCT007 BKN250
FIR KZID / Amérique du Nord



MET'MAP, la Météo Aéronautique d'un coup d'oeil ! - Copyright ORBIFLY Décembre 2007 - Disclaimer

ORBIFLY MET'MAP TEAM :

Programmation & Développement : Alexandra Zaïnal
Sur une idée originale de : Baudouin d'Aumeries
Assistance à la programmation : Marc-Olivier Méhu
Soutien technique & logistique : Manuel Goepfert

Contact : metmap@orbifly.com




SOURCES & CREDITS :

   NOAA       Earth
Advisory